地図

経路データ

SID SEASON NUMBER BASIN SUBBASIN NAME ISO_TIME NATURE LAT LON WMO_WIND WMO_PRES WMO_AGENCY TRACK_TYPE DIST2LAND LANDFALL IFLAG USA_AGENCY USA_ATCF_ID USA_LAT USA_LON USA_RECORD USA_STATUS USA_WIND USA_PRES USA_SSHS USA_R34_NE USA_R34_SE USA_R34_SW USA_R34_NW USA_R50_NE USA_R50_SE USA_R50_SW USA_R50_NW USA_R64_NE USA_R64_SE USA_R64_SW USA_R64_NW USA_POCI USA_ROCI USA_RMW USA_EYE TOKYO_LAT TOKYO_LON TOKYO_GRADE TOKYO_WIND TOKYO_PRES TOKYO_R50_DIR TOKYO_R50_LONG TOKYO_R50_SHORT TOKYO_R30_DIR TOKYO_R30_LONG TOKYO_R30_SHORT TOKYO_LAND CMA_LAT CMA_LON CMA_CAT CMA_WIND CMA_PRES HKO_LAT HKO_LON HKO_CAT HKO_WIND HKO_PRES NEWDELHI_LAT NEWDELHI_LON NEWDELHI_GRADE NEWDELHI_WIND NEWDELHI_PRES NEWDELHI_CI NEWDELHI_DP NEWDELHI_POCI REUNION_LAT REUNION_LON REUNION_TYPE REUNION_WIND REUNION_PRES REUNION_TNUM REUNION_CI REUNION_RMW REUNION_R34_NE REUNION_R34_SE REUNION_R34_SW REUNION_R34_NW REUNION_R50_NE REUNION_R50_SE REUNION_R50_SW REUNION_R50_NW REUNION_R64_NE REUNION_R64_SE REUNION_R64_SW REUNION_R64_NW BOM_LAT BOM_LON BOM_TYPE BOM_WIND BOM_PRES BOM_TNUM BOM_CI BOM_RMW BOM_R34_NE BOM_R34_SE BOM_R34_SW BOM_R34_NW BOM_R50_NE BOM_R50_SE BOM_R50_SW BOM_R50_NW BOM_R64_NE BOM_R64_SE BOM_R64_SW BOM_R64_NW BOM_ROCI BOM_POCI BOM_EYE BOM_POS_METHOD BOM_PRES_METHOD NADI_LAT NADI_LON NADI_CAT NADI_WIND NADI_PRES WELLINGTON_LAT WELLINGTON_LON WELLINGTON_WIND WELLINGTON_PRES DS824_LAT DS824_LON DS824_STAGE DS824_WIND DS824_PRES TD9636_LAT TD9636_LON TD9636_STAGE TD9636_WIND TD9636_PRES TD9635_LAT TD9635_LON TD9635_WIND TD9635_PRES TD9635_ROCI NEUMANN_LAT NEUMANN_LON NEUMANN_CLASS NEUMANN_WIND NEUMANN_PRES MLC_LAT MLC_LON MLC_CLASS MLC_WIND MLC_PRES USA_GUST BOM_GUST BOM_GUST_PER REUNION_GUST REUNION_GUST_PER USA_SEAHGT USA_SEARAD_NE USA_SEARAD_SE USA_SEARAD_SW USA_SEARAD_NW STORM_SPEED STORM_DIR
1901335S09068 1902 49 SI MM NOT_NAMED 1901-11-30 18:00:00 NR -9.10000 68.3000 main 1677 1661 __________O___ -1 -9.10000 68.3000 7 4 236
1901335S09068 1902 49 SI MM NOT_NAMED 1901-11-30 21:00:00 NR -9.20134 68.1481 main 1654 1638 __________P___ -1 -9.20134 68.1481 7 4 236
1901335S09068 1902 49 SI MM NOT_NAMED 1901-12-01 00:00:00 NR -9.32215 67.9669 main 1638 1600 __________P___ -1 -9.32215 67.9669 7 5 236
1901335S09068 1902 49 SI MM NOT_NAMED 1901-12-01 03:00:00 NR -9.48191 67.7274 main 1600 1561 __________P___ -1 -9.48191 67.7274 7 7 236
1901335S09068 1902 49 SI MM NOT_NAMED 1901-12-01 06:00:00 NR -9.70000 67.4000 main 1561 1507 __________O___ -1 -9.70000 67.4000 7 9 236
1901335S09068 1902 49 SI MM NOT_NAMED 1901-12-01 09:00:00 NR -9.98723 66.9674 main 1507 1446 __________P___ -1 -9.98723 66.9674 7 11 236
1901335S09068 1902 49 SI MM NOT_NAMED 1901-12-01 12:00:00 NR -10.3205 66.4606 main 1446 1386 __________P___ -1 -10.3205 66.4606 7 12 236
1901335S09068 1902 49 SI MM NOT_NAMED 1901-12-01 15:00:00 NR -10.6685 65.9235 main 1370 1310 __________P___ -1 -10.6685 65.9235 7 12 237
1901335S09068 1902 49 SI MM NOT_NAMED 1901-12-01 18:00:00 NR -11.0000 65.4000 main 1310 1256 __________O___ -1 -11.0000 65.4000 7 12 238
1901335S09068 1902 49 SI MM NOT_NAMED 1901-12-01 21:00:00 NR -11.2918 64.9249 main 1250 1206 __________P___ -1 -11.2918 64.9249 7 11 238
1901335S09068 1902 49 SI MM NOT_NAMED 1901-12-02 00:00:00 NR -11.5599 64.4750 main 1197 1153 __________P___ -1 -11.5599 64.4750 7 10 239
1901335S09068 1902 49 SI MM NOT_NAMED 1901-12-02 03:00:00 NR -11.7981 64.0625 main 1153 1110 __________P___ -1 -11.7981 64.0625 7 9 240
1901335S09068 1902 49 SI MM NOT_NAMED 1901-12-02 06:00:00 NR -12.0000 63.7000 main 1110 1082 __________O___ -1 -12.0000 63.7000 7 7 241
1901335S09068 1902 49 SI MM NOT_NAMED 1901-12-02 09:00:00 NR -12.1524 63.3992 main 1073 1051 __________P___ -1 -12.1524 63.3992 7 6 243
1901335S09068 1902 49 SI MM NOT_NAMED 1901-12-02 12:00:00 NR -12.2720 63.1469 main 1045 1024 __________P___ -1 -12.2720 63.1469 7 5 244
1901335S09068 1902 49 SI MM NOT_NAMED 1901-12-02 15:00:00 NR -12.3806 62.9212 main 1024 1003 __________P___ -1 -12.3806 62.9212 7 5 242
1901335S09068 1902 49 SI MM NOT_NAMED 1901-12-02 18:00:00 NR -12.5000 62.7000 main 1003 983 __________O___ -1 -12.5000 62.7000 7 5 238
1901335S09068 1902 49 SI MM NOT_NAMED 1901-12-02 21:00:00 NR -12.6564 62.4621 main 973 947 __________P___ -1 -12.6564 62.4621 7 6 235
1901335S09068 1902 49 SI MM NOT_NAMED 1901-12-03 00:00:00 NR -12.8273 62.2223 main 947 917 __________P___ -1 -12.8273 62.2223 7 6 234
1901335S09068 1902 49 SI MM NOT_NAMED 1901-12-03 03:00:00 NR -13.0095 61.9714 main 917 881 __________P___ -1 -13.0095 61.9714 7 6 234
1901335S09068 1902 49 SI MM NOT_NAMED 1901-12-03 06:00:00 NR -13.2000 61.7000 main 881 846 __________O___ -1 -13.2000 61.7000 7 7 235
1901335S09068 1902 49 SI MM NOT_NAMED 1901-12-03 09:00:00 NR -13.3927 61.4127 main 846 812 __________P___ -1 -13.3927 61.4127 7 7 236
1901335S09068 1902 49 SI MM NOT_NAMED 1901-12-03 12:00:00 NR -13.5922 61.1022 main 812 778 __________P___ -1 -13.5922 61.1022 7 7 237
1901335S09068 1902 49 SI MM NOT_NAMED 1901-12-03 15:00:00 NR -13.7957 60.7657 main 778 740 __________P___ -1 -13.7957 60.7657 7 8 239
1901335S09068 1902 49 SI MM NOT_NAMED 1901-12-03 18:00:00 NR -14.0000 60.4000 main 740 707 __________O___ -1 -14.0000 60.4000 7 8 243
1901335S09068 1902 49 SI MM NOT_NAMED 1901-12-03 21:00:00 NR -14.1631 60.0312 main 703 682 __________P___ -1 -14.1631 60.0312 7 8 246
1901335S09068 1902 49 SI MM NOT_NAMED 1901-12-04 00:00:00 NR -14.3319 59.6309 main 679 646 __________P___ -1 -14.3319 59.6309 7 9 245
1901335S09068 1902 49 SI MM NOT_NAMED 1901-12-04 03:00:00 NR -14.5348 59.1902 main 646 602 __________P___ -1 -14.5348 59.1902 7 10 243
1901335S09068 1902 49 SI MM NOT_NAMED 1901-12-04 06:00:00 NR -14.8000 58.7000 main 602 561 __________O___ -1 -14.8000 58.7000 7 12 239
1901335S09068 1902 49 SI MM NOT_NAMED 1901-12-04 09:00:00 NR -15.1484 58.1424 main 561 514 __________P___ -1 -15.1484 58.1424 7 14 236
1901335S09068 1902 49 SI MM NOT_NAMED 1901-12-04 12:00:00 NR -15.5604 57.5376 main 503 461 __________P___ -1 -15.5604 57.5376 7 15 234
1901335S09068 1902 49 SI MM NOT_NAMED 1901-12-04 15:00:00 NR -16.0171 56.9140 main 463 422 __________P___ -1 -16.0171 56.9140 7 15 232
1901335S09068 1902 49 SI MM NOT_NAMED 1901-12-04 18:00:00 NR -16.5000 56.3000 main 422 400 __________O___ -1 -16.5000 56.3000 7 15 231
1901335S09068 1902 49 SI MM NOT_NAMED 1901-12-04 21:00:00 NR -16.9500 55.7026 main 405 387 __________P___ -1 -16.9500 55.7026 7 15 231
1901335S09068 1902 49 SI MM NOT_NAMED 1901-12-05 00:00:00 NR -17.4251 55.1243 main 393 354 __________P___ -1 -17.4251 55.1243 7 15 227
1901335S09068 1902 49 SI MM NOT_NAMED 1901-12-05 03:00:00 NR -17.9376 54.5838 main 354 306 __________P___ -1 -17.9376 54.5838 7 15 222
1901335S09068 1902 49 SI MM NOT_NAMED 1901-12-05 06:00:00 NR -18.5000 54.1000 main 306 276 __________O___ -1 -18.5000 54.1000 7 15 219
1901335S09068 1902 49 SI MM NOT_NAMED 1901-12-05 09:00:00 NR -19.1082 53.5970 main 276 259 __________P___ -1 -19.1082 53.5970 7 16 215
1901335S09068 1902 49 SI MM NOT_NAMED 1901-12-05 12:00:00 NR -19.7673 53.1635 main 254 250 __________P___ -1 -19.7673 53.1635 7 15 207
1901335S09068 1902 49 SI MM NOT_NAMED 1901-12-05 15:00:00 NR -20.4676 52.8480 main 258 251 __________P___ -1 -20.4676 52.8480 7 15 197
1901335S09068 1902 49 SI MM NOT_NAMED 1901-12-05 18:00:00 NR -21.2000 52.7000 main 259 259 __________O___ -1 -21.2000 52.7000 7 15 185
1901335S09068 1902 49 SI MM NOT_NAMED 1901-12-05 21:00:00 NR -21.9814 52.7071 main 277 277 __________P___ -1 -21.9814 52.7071 7 16 174
1901335S09068 1902 49 SI MM NOT_NAMED 1901-12-06 00:00:00 NR -22.7855 52.8912 main 298 298 __________P___ -1 -22.7855 52.8912 7 17 163
1901335S09068 1902 49 SI MM NOT_NAMED 1901-12-06 03:00:00 NR -23.5719 53.2300 main 335 329 __________P___ -1 -23.5719 53.2300 7 17 154
1901335S09068 1902 49 SI MM NOT_NAMED 1901-12-06 06:00:00 NR -24.3000 53.7000 main 373 373 __________O___ -1 -24.3000 53.7000 7 17 146
1901335S09068 1902 49 SI MM NOT_NAMED 1901-12-06 09:00:00 NR -24.9558 54.2392 main 427 423 __________P___ -1 -24.9558 54.2392 7 17 139
1901335S09068 1902 49 SI MM NOT_NAMED 1901-12-06 12:00:00 NR -25.5431 54.8981 main 463 463 __________P___ -1 -25.5431 54.8981 7 17 131
1901335S09068 1902 49 SI MM NOT_NAMED 1901-12-06 15:00:00 NR -26.0587 55.6332 main 525 525 __________P___ -1 -26.0587 55.6332 7 17 125
1901335S09068 1902 49 SI MM NOT_NAMED 1901-12-06 18:00:00 NR -26.5000 56.4000 main 575 575 __________O___ -1 -26.5000 56.4000 7 16 121
1901335S09068 1902 49 SI MM NOT_NAMED 1901-12-06 21:00:00 NR -26.8686 57.1611 main 635 635 __________P___ -1 -26.8686 57.1611 7 15 117
1901335S09068 1902 49 SI MM NOT_NAMED 1901-12-07 00:00:00 NR -27.1795 57.9120 main 688 688 __________P___ -1 -27.1795 57.9120 7 15 114
1901335S09068 1902 49 SI MM NOT_NAMED 1901-12-07 03:00:00 NR -27.4507 58.6568 main 750 750 __________P___ -1 -27.4507 58.6568 7 14 112
1901335S09068 1902 49 SI MM NOT_NAMED 1901-12-07 06:00:00 NR -27.7000 59.4000 main 801 __________O___ -1 -27.7000 59.4000 7 14 111

IBTrACS Databaseについて

本データベースは、米国NOAAが公開する1842年以降の世界の熱帯低気圧のベストトラックデータアーカイブInternational Best Track Archive for Climate Stewardship (IBTrACS)を、ウェブで閲覧しやすい形式に変換したものです。

最終更新日:2021-10-08